Time;durP1;ratioP1;P1;durP2;ratioP2;P2;SDS_P1;SDS_P2;PMS_P1;PMS_P2;Temp;Humidity;BMP_temperature;BMP_pressure;BME280_temperature;BME280_humidity;BME280_pressure;Samples;Min_cycle;Max_cycle;Signal;HPM_P1;HPM_P2
2022/06/08 00:00:53;;;;;;;15.85;14.27;;;16.40;99.90;;;;;;2079901;28;20058;-75
2022/06/08 00:01:54;;;;;;;16.90;15.23;;;16.40;99.90;;;;;;2088031;28;20395;-73
2022/06/08 00:03:03;;;;;;;16.92;15.30;;;16.50;99.90;;;;;;2087890;28;20048;-73
2022/06/08 00:04:06;;;;;;;16.90;15.27;;;16.40;99.90;;;;;;2087854;28;20455;-73
2022/06/08 00:05:08;;;;;;;17.67;15.73;;;16.40;99.90;;;;;;2088051;28;20444;-73
2022/06/08 00:06:08;;;;;;;17.98;16.08;;;16.50;99.90;;;;;;2087667;28;20072;-73
2022/06/08 00:07:09;;;;;;;16.52;14.70;;;16.40;99.90;;;;;;2088027;28;20021;-73
2022/06/08 00:08:10;;;;;;;17.83;16.02;;;16.40;99.90;;;;;;2087738;28;20032;-73
2022/06/08 00:09:11;;;;;;;18.00;16.15;;;16.40;99.90;;;;;;2089440;28;20479;-73
2022/06/08 00:10:12;;;;;;;18.67;16.77;;;16.40;99.90;;;;;;2089269;28;20226;-73
2022/06/08 00:11:13;;;;;;;19.65;17.55;;;16.40;99.90;;;;;;2097312;28;20152;-73
2022/06/08 00:12:14;;;;;;;18.38;16.48;;;16.40;99.90;;;;;;2096925;28;20090;-73
2022/06/08 00:13:15;;;;;;;18.00;16.23;;;16.40;99.90;;;;;;2089330;28;20656;-73
2022/06/08 00:14:16;;;;;;;17.88;15.98;;;16.40;99.90;;;;;;2089766;28;20115;-73
2022/06/08 00:15:16;;;;;;;17.63;15.82;;;16.40;99.90;;;;;;2080860;28;20033;-74
2022/06/08 00:16:18;;;;;;;17.17;15.57;;;16.40;99.90;;;;;;2080695;28;20029;-73
2022/06/08 00:17:18;;;;;;;19.05;17.10;;;16.40;99.90;;;;;;2089797;28;20146;-73
2022/06/08 00:18:19;;;;;;;17.95;16.15;;;16.40;99.90;;;;;;2080868;28;20655;-73
2022/06/08 00:19:20;;;;;;;17.60;15.63;;;16.40;99.90;;;;;;2081325;28;20365;-73
2022/06/08 00:20:21;;;;;;;18.10;16.08;;;16.40;99.90;;;;;;2089983;28;20061;-74
2022/06/08 00:21:22;;;;;;;18.23;16.52;;;16.40;99.90;;;;;;2089441;28;20517;-73
2022/06/08 00:22:23;;;;;;;19.52;17.58;;;16.30;99.90;;;;;;2089424;28;20082;-73
2022/06/08 00:23:24;;;;;;;18.42;16.52;;;16.30;99.90;;;;;;2089493;28;20107;-73
2022/06/08 00:24:25;;;;;;;17.85;15.95;;;16.30;99.90;;;;;;2089593;28;20021;-73
2022/06/08 00:25:25;;;;;;;17.85;15.98;;;16.30;99.90;;;;;;2089056;28;20020;-73
2022/06/08 00:26:26;;;;;;;19.48;17.40;;;16.30;99.90;;;;;;2089213;28;20029;-73
2022/06/08 00:27:27;;;;;;;18.08;16.17;;;16.20;99.90;;;;;;2089063;28;20626;-72
2022/06/08 00:28:28;;;;;;;17.30;15.60;;;16.20;99.90;;;;;;2089015;28;20044;-72
2022/06/08 00:29:29;;;;;;;17.55;15.73;;;16.20;99.90;;;;;;2089173;28;20028;-72
2022/06/08 00:30:31;;;;;;;18.02;16.15;;;16.20;99.90;;;;;;2080091;28;20080;-72
2022/06/08 00:31:32;;;;;;;17.67;16.00;;;16.20;99.90;;;;;;2072106;28;20041;-72
2022/06/08 00:32:33;;;;;;;17.27;15.63;;;16.20;99.90;;;;;;2088359;28;20025;-72
2022/06/08 00:33:34;;;;;;;17.42;15.73;;;16.20;99.90;;;;;;2088320;28;20098;-72
2022/06/08 00:34:36;;;;;;;17.23;15.43;;;16.20;99.90;;;;;;2087915;28;20025;-72
2022/06/08 00:35:37;;;;;;;17.73;16.00;;;16.20;99.90;;;;;;2096147;28;20682;-72
2022/06/08 00:36:38;;;;;;;17.45;15.75;;;16.10;99.90;;;;;;2080126;28;20029;-73
2022/06/08 00:37:38;;;;;;;18.23;16.33;;;16.10;99.90;;;;;;2080065;28;20083;-72
2022/06/08 00:38:39;;;;;;;18.67;16.73;;;16.10;99.90;;;;;;2088966;28;20071;-72
2022/06/08 00:39:40;;;;;;;17.98;16.13;;;16.10;99.90;;;;;;2079856;28;20124;-72
2022/06/08 00:40:56;;;;;;;18.20;16.42;;;16.10;99.90;;;;;;2079966;28;20025;-72
2022/06/08 00:42:08;;;;;;;20.05;18.02;;;16.00;99.90;;;;;;2082343;28;20041;-72
2022/06/08 00:43:09;;;;;;;18.88;17.02;;;16.00;99.90;;;;;;2089116;28;20526;-72
2022/06/08 00:44:25;;;;;;;18.25;16.45;;;16.00;99.90;;;;;;2088341;28;20036;-72
2022/06/08 00:45:26;;;;;;;17.45;15.73;;;16.00;99.90;;;;;;2080353;28;20025;-72
2022/06/08 00:46:27;;;;;;;18.25;16.35;;;16.00;99.90;;;;;;2088265;28;20024;-72
2022/06/08 00:47:38;;;;;;;17.90;16.10;;;16.00;99.90;;;;;;2096625;28;20024;-74
2022/06/08 00:48:43;;;;;;;18.65;16.75;;;16.00;99.90;;;;;;2089405;28;20063;-72
2022/06/08 00:50:02;;;;;;;18.60;16.65;;;16.00;99.90;;;;;;2080256;28;20036;-72
2022/06/08 00:51:04;;;;;;;18.15;16.35;;;16.00;99.90;;;;;;2082832;28;20032;-72
2022/06/08 00:52:06;;;;;;;17.33;15.73;;;16.00;99.90;;;;;;2088850;28;20028;-71
2022/06/08 00:53:09;;;;;;;18.13;16.23;;;15.90;99.90;;;;;;2088355;28;20029;-71
2022/06/08 00:54:17;;;;;;;18.20;16.40;;;15.90;99.90;;;;;;2088392;28;20017;-72
2022/06/08 00:55:22;;;;;;;17.67;15.77;;;15.90;99.90;;;;;;2079959;28;20412;-73
2022/06/08 00:56:27;;;;;;;18.77;16.88;;;15.90;99.90;;;;;;2072126;28;20026;-72
2022/06/08 00:57:43;;;;;;;17.63;15.93;;;15.90;99.90;;;;;;2080787;28;20041;-72
2022/06/08 00:58:45;;;;;;;18.90;16.38;;;15.90;99.90;;;;;;2089059;28;20036;-73
2022/06/08 01:00:11;;;;;;;18.23;16.42;;;15.90;99.90;;;;;;2080185;28;20059;-72
2022/06/08 01:01:12;;;;;;;17.35;15.55;;;15.90;99.90;;;;;;2074632;28;20057;-74
2022/06/08 01:02:14;;;;;;;18.25;16.42;;;15.90;99.90;;;;;;2080317;28;20029;-72
2022/06/08 01:03:16;;;;;;;18.50;16.52;;;15.90;99.90;;;;;;2080226;28;20060;-73
2022/06/08 01:04:22;;;;;;;17.88;16.08;;;15.90;99.90;;;;;;2089159;28;20151;-71
2022/06/08 01:05:29;;;;;;;18.92;17.02;;;15.90;99.90;;;;;;2087933;28;20056;-72
2022/06/08 01:06:32;;;;;;;18.52;16.73;;;15.90;99.90;;;;;;2088395;28;20202;-72
2022/06/08 01:07:33;;;;;;;18.33;16.52;;;15.80;99.90;;;;;;2096663;28;20371;-72
2022/06/08 01:08:47;;;;;;;18.25;16.45;;;15.80;99.90;;;;;;2080023;28;20500;-71
2022/06/08 01:09:52;;;;;;;17.80;16.10;;;15.90;99.90;;;;;;2073936;28;20058;-72
2022/06/08 01:10:56;;;;;;;18.90;17.08;;;15.80;99.90;;;;;;2088113;28;20438;-74
2022/06/08 01:12:01;;;;;;;19.98;17.42;;;15.80;99.90;;;;;;2096011;28;20028;-72
2022/06/08 01:13:05;;;;;;;18.25;16.42;;;15.80;99.90;;;;;;2089144;28;20108;-72
2022/06/08 01:14:11;;;;;;;21.73;17.42;;;15.80;99.90;;;;;;2079977;28;20033;-72
2022/06/08 01:15:20;;;;;;;19.02;17.05;;;15.80;99.90;;;;;;2072533;28;20607;-72
2022/06/08 01:16:21;;;;;;;18.58;16.77;;;15.80;99.90;;;;;;2089074;28;20036;-72
2022/06/08 01:17:22;;;;;;;18.92;17.02;;;15.80;99.90;;;;;;2096645;28;20026;-71
2022/06/08 01:18:29;;;;;;;18.23;16.33;;;15.80;99.90;;;;;;2080011;28;20116;-71
2022/06/08 01:19:34;;;;;;;19.08;17.08;;;15.80;99.90;;;;;;2079920;28;20024;-71
2022/06/08 01:20:35;;;;;;;18.98;17.08;;;15.70;99.90;;;;;;2079801;28;20515;-71
2022/06/08 01:21:35;;;;;;;18.27;16.48;;;15.70;99.90;;;;;;2080012;28;20033;-72
2022/06/08 01:22:44;;;;;;;18.80;16.90;;;15.70;99.90;;;;;;2079863;28;20637;-71
2022/06/08 01:24:00;;;;;;;18.27;16.48;;;15.70;99.90;;;;;;2088116;28;20021;-71
2022/06/08 01:25:04;;;;;;;18.70;16.88;;;15.70;99.90;;;;;;2077653;28;20025;-72
2022/06/08 01:26:29;;;;;;;19.98;17.90;;;15.70;99.90;;;;;;2080779;28;20048;-71
2022/06/08 01:28:00;;;;;;;19.95;17.90;;;15.70;99.90;;;;;;2087287;28;20049;-71
2022/06/08 01:29:10;;;;;;;20.63;18.60;;;15.70;99.90;;;;;;2088751;28;20539;-71
2022/06/08 01:30:16;;;;;;;19.83;17.73;;;15.70;99.90;;;;;;2088736;28;20646;-71
2022/06/08 01:31:42;;;;;;;19.63;17.63;;;15.70;99.90;;;;;;2088683;28;20474;-71
2022/06/08 01:33:07;;;;;;;20.42;18.23;;;15.60;99.90;;;;;;2055481;28;20034;-71
2022/06/08 01:34:12;;;;;;;19.13;17.17;;;15.60;99.90;;;;;;2089369;28;20025;-72
2022/06/08 01:35:24;;;;;;;19.48;17.48;;;15.60;99.90;;;;;;2089177;28;20020;-72
2022/06/08 01:36:49;;;;;;;19.00;17.00;;;15.60;99.90;;;;;;2080178;28;20024;-73
2022/06/08 01:38:16;;;;;;;20.85;18.75;;;15.60;99.90;;;;;;2083574;28;20031;-73
2022/06/08 01:39:51;;;;;;;18.90;16.92;;;15.60;99.90;;;;;;2088915;28;20028;-73
2022/06/08 01:41:19;;;;;;;19.38;17.38;;;15.60;99.90;;;;;;2080342;28;20033;-73
2022/06/08 01:42:49;;;;;;;19.83;17.83;;;15.50;99.90;;;;;;2084177;28;20064;-73
2022/06/08 01:43:52;;;;;;;19.10;17.10;;;15.50;99.90;;;;;;2080355;28;20041;-72
2022/06/08 01:45:33;;;;;;;19.10;17.13;;;15.50;99.90;;;;;;2080243;28;20124;-71
2022/06/08 01:46:43;;;;;;;18.65;16.77;;;15.50;99.90;;;;;;2085674;28;20117;-72
2022/06/08 01:48:17;;;;;;;18.73;16.70;;;15.50;99.90;;;;;;2089245;28;20029;-73
2022/06/08 01:49:27;;;;;;;19.67;17.67;;;15.50;99.90;;;;;;2089446;28;20052;-71
2022/06/08 01:50:56;;;;;;;18.95;16.95;;;15.50;99.90;;;;;;2088710;28;20028;-71
2022/06/08 01:52:31;;;;;;;19.52;17.52;;;15.50;99.90;;;;;;2079591;28;20113;-72
2022/06/08 01:53:58;;;;;;;21.52;18.05;;;15.50;99.90;;;;;;2092597;28;20036;-71
2022/06/08 01:55:15;;;;;;;20.25;18.15;;;15.50;99.90;;;;;;2076231;28;20026;-72
2022/06/08 01:56:23;;;;;;;19.40;17.40;;;15.50;99.90;;;;;;2075788;28;20109;-72
2022/06/08 01:57:48;;;;;;;19.70;17.60;;;15.50;99.90;;;;;;2079588;28;20030;-72
2022/06/08 02:01:38;;;;;;;18.80;16.90;;;15.50;99.90;;;;;;2088523;28;20095;-72
2022/06/08 02:03:03;;;;;;;19.60;17.52;;;15.50;99.90;;;;;;2088488;28;20036;-72
2022/06/08 02:04:31;;;;;;;18.60;16.70;;;15.50;99.90;;;;;;2088384;28;20066;-72
2022/06/08 02:05:39;;;;;;;19.00;17.10;;;15.50;99.90;;;;;;2079569;28;20029;-71
2022/06/08 02:07:09;;;;;;;18.30;16.38;;;15.50;99.90;;;;;;2079531;28;20029;-71
2022/06/08 02:08:27;;;;;;;18.92;16.92;;;15.50;99.90;;;;;;2091360;28;20020;-72
2022/06/08 02:09:38;;;;;;;19.90;17.83;;;15.50;99.90;;;;;;2085282;28;20531;-72
2022/06/08 02:10:39;;;;;;;;;;;15.50;99.90;;;;;;2089207;28;20040;-73
2022/06/08 02:11:51;;;;;;;18.98;16.75;;;15.50;99.90;;;;;;2088068;28;19961;-72
2022/06/08 02:13:00;;;;;;;18.88;16.90;;;15.50;99.90;;;;;;2073098;28;20034;-72
2022/06/08 02:14:14;;;;;;;19.00;17.00;;;15.40;99.90;;;;;;2081950;28;20045;-72
2022/06/08 02:15:24;;;;;;;20.05;17.95;;;15.40;99.90;;;;;;2079419;28;20022;-72
2022/06/08 02:16:51;;;;;;;19.73;17.63;;;15.40;99.90;;;;;;2073077;28;20049;-71
2022/06/08 02:17:56;;;;;;;18.63;16.70;;;15.40;99.90;;;;;;2092042;28;20031;-74
2022/06/08 02:19:12;;;;;;;20.45;17.27;;;15.40;99.90;;;;;;2086833;28;20025;-72
2022/06/08 02:20:38;;;;;;;19.55;17.33;;;15.40;99.90;;;;;;2072698;28;20029;-72
2022/06/08 02:21:57;;;;;;;19.25;17.25;;;15.40;99.90;;;;;;2079801;28;20022;-71
2022/06/08 02:23:08;;;;;;;18.77;16.80;;;15.40;99.90;;;;;;2090714;28;20057;-72
2022/06/08 02:24:23;;;;;;;18.60;16.70;;;15.40;99.90;;;;;;2086975;28;20715;-71
2022/06/08 02:25:32;;;;;;;19.27;17.27;;;15.40;99.90;;;;;;2090244;28;20021;-72
2022/06/08 02:26:43;;;;;;;19.15;17.20;;;15.40;99.90;;;;;;2086945;28;20028;-72
2022/06/08 02:28:29;;;;;;;19.58;17.48;;;15.40;99.90;;;;;;2089452;28;20025;-72
2022/06/08 02:29:41;;;;;;;19.92;17.83;;;15.40;99.90;;;;;;2082054;28;20028;-72
2022/06/08 02:30:51;;;;;;;18.95;17.05;;;15.40;99.90;;;;;;2089898;28;20098;-72
2022/06/08 02:32:00;;;;;;;19.20;17.15;;;15.40;99.90;;;;;;2095432;28;20039;-72
2022/06/08 02:34:42;;;;;;;19.55;17.48;;;15.30;99.90;;;;;;2093303;28;20432;-72
2022/06/08 02:35:49;;;;;;;19.73;17.73;;;15.30;99.90;;;;;;2087989;28;20077;-73
2022/06/08 02:37:04;;;;;;;19.77;17.67;;;15.30;99.90;;;;;;2080652;28;20021;-72
2022/06/08 02:38:10;;;;;;;19.75;17.70;;;15.30;99.90;;;;;;2090278;28;20033;-72
2022/06/08 02:39:28;;;;;;;20.95;18.15;;;15.30;99.90;;;;;;2087502;28;20045;-72
2022/06/08 02:40:34;;;;;;;20.00;17.75;;;15.30;99.90;;;;;;2079850;28;20121;-72
2022/06/08 02:41:41;;;;;;;21.17;17.48;;;15.30;99.90;;;;;;2089018;28;20029;-72
2022/06/08 02:42:57;;;;;;;19.70;17.60;;;15.30;99.90;;;;;;2087884;28;20471;-73
2022/06/08 02:44:03;;;;;;;20.05;17.88;;;15.30;99.90;;;;;;2080663;28;20026;-72
2022/06/08 02:45:17;;;;;;;19.73;17.42;;;15.30;99.90;;;;;;2081807;28;20549;-72
2022/06/08 02:46:30;;;;;;;;;;;15.20;99.90;;;;;;2081305;28;20029;-71
2022/06/08 02:47:34;;;;;;;21.10;18.38;;;15.20;99.90;;;;;;2081127;28;19912;-71
2022/06/08 02:48:44;;;;;;;20.23;17.98;;;15.20;99.90;;;;;;2089277;28;20120;-71
2022/06/08 02:49:45;;;;;;;18.48;16.58;;;15.20;99.90;;;;;;2087648;28;20152;-71
2022/06/08 02:50:54;;;;;;;18.85;16.95;;;15.20;99.90;;;;;;2080287;28;20021;-72
2022/06/08 02:52:04;;;;;;;19.17;17.27;;;15.20;99.90;;;;;;2089610;28;20141;-72
2022/06/08 02:53:28;;;;;;;19.38;17.38;;;15.20;99.90;;;;;;2096117;28;20054;-71
2022/06/08 02:54:30;;;;;;;19.25;17.35;;;15.20;99.90;;;;;;2080212;28;20037;-71
2022/06/08 02:55:46;;;;;;;18.70;16.25;;;15.20;99.90;;;;;;2073134;28;20034;-72
2022/06/08 02:56:58;;;;;;;19.35;17.40;;;15.20;99.90;;;;;;2090479;28;20507;-75
2022/06/08 02:58:05;;;;;;;18.85;16.95;;;15.20;99.90;;;;;;2079208;28;20052;-71
2022/06/08 02:59:24;;;;;;;18.90;16.75;;;15.20;99.90;;;;;;2082200;28;20039;-72
2022/06/08 03:00:33;;;;;;;19.80;17.80;;;15.20;99.90;;;;;;2085548;28;20029;-72
2022/06/08 03:01:39;;;;;;;18.80;17.00;;;15.20;99.90;;;;;;2080922;28;20506;-72
2022/06/08 03:02:45;;;;;;;18.90;16.75;;;15.10;99.90;;;;;;2079661;28;20388;-72
2022/06/08 03:03:55;;;;;;;19.65;17.65;;;15.20;99.90;;;;;;2088827;28;20025;-72
2022/06/08 03:05:11;;;;;;;19.60;17.65;;;15.10;99.90;;;;;;2086657;28;20063;-72
2022/06/08 03:06:17;;;;;;;20.05;17.30;;;15.10;99.90;;;;;;2089698;28;20455;-72
2022/06/08 03:07:25;;;;;;;19.23;17.23;;;15.10;99.90;;;;;;2087187;28;20051;-72
2022/06/08 03:08:30;;;;;;;19.27;17.27;;;15.10;99.90;;;;;;2088770;28;20479;-73
2022/06/08 03:09:33;;;;;;;19.30;17.05;;;15.10;99.90;;;;;;2095638;28;20052;-73
2022/06/08 03:10:37;;;;;;;18.83;16.83;;;15.10;99.90;;;;;;2088573;28;20484;-72
2022/06/08 03:11:41;;;;;;;18.33;16.52;;;15.10;99.90;;;;;;2079668;28;20068;-72
2022/06/08 03:13:04;;;;;;;18.83;16.92;;;15.10;99.90;;;;;;2080285;28;20725;-73
2022/06/08 03:14:09;;;;;;;19.15;17.15;;;15.10;99.90;;;;;;2079713;28;20079;-73
2022/06/08 03:15:15;;;;;;;18.80;16.90;;;15.10;99.90;;;;;;2088607;28;20017;-73
2022/06/08 03:16:28;;;;;;;18.60;16.80;;;15.10;99.90;;;;;;2095742;28;20045;-72
2022/06/08 03:17:33;;;;;;;19.45;17.45;;;15.00;99.90;;;;;;2079601;28;20022;-73
2022/06/08 03:18:35;;;;;;;18.50;16.60;;;15.10;99.90;;;;;;2088337;28;20048;-73
2022/06/08 03:19:36;;;;;;;18.95;17.05;;;15.10;99.90;;;;;;2087726;28;20493;-73
2022/06/08 03:20:38;;;;;;;18.90;16.95;;;15.10;99.90;;;;;;2071501;28;20021;-73
2022/06/08 03:21:38;;;;;;;19.40;17.40;;;15.10;99.90;;;;;;2079461;28;20508;-72
2022/06/08 03:22:40;;;;;;;19.17;17.17;;;15.10;99.90;;;;;;2079702;28;20017;-73
2022/06/08 03:23:42;;;;;;;19.40;17.48;;;15.10;99.90;;;;;;2096182;28;20029;-73
2022/06/08 03:24:43;;;;;;;18.90;17.00;;;15.10;99.90;;;;;;2087919;28;20024;-73
2022/06/08 03:25:46;;;;;;;19.38;17.38;;;15.10;99.90;;;;;;2071700;28;20022;-72
2022/06/08 03:26:52;;;;;;;19.38;17.38;;;15.10;99.90;;;;;;2088070;28;20119;-71
2022/06/08 03:27:53;;;;;;;20.52;17.20;;;15.10;99.90;;;;;;2095636;28;20021;-73
2022/06/08 03:28:56;;;;;;;19.73;17.63;;;15.10;99.90;;;;;;2079439;28;20500;-72
2022/06/08 03:29:57;;;;;;;18.52;16.60;;;15.10;99.90;;;;;;2079605;28;20104;-72
2022/06/08 03:30:57;;;;;;;19.10;17.02;;;15.10;99.90;;;;;;2079513;28;20455;-72
2022/06/08 03:31:59;;;;;;;19.88;17.50;;;15.10;99.90;;;;;;2071412;28;20033;-73
2022/06/08 03:33:00;;;;;;;20.00;17.90;;;15.20;99.90;;;;;;2087646;28;20076;-72
2022/06/08 03:34:01;;;;;;;19.02;17.02;;;15.20;99.90;;;;;;2087792;28;20025;-72
2022/06/08 03:35:02;;;;;;;19.50;17.02;;;15.20;99.90;;;;;;2079663;28;20061;-73
2022/06/08 03:36:04;;;;;;;19.52;17.42;;;15.20;99.90;;;;;;2095980;28;20051;-72
2022/06/08 03:37:05;;;;;;;18.40;16.50;;;15.20;99.90;;;;;;2087700;28;20681;-73
2022/06/08 03:38:07;;;;;;;18.58;16.67;;;15.20;99.90;;;;;;2079474;28;20055;-73
2022/06/08 03:39:12;;;;;;;19.40;17.40;;;15.20;99.90;;;;;;2072133;28;20068;-73
2022/06/08 03:40:14;;;;;;;19.42;17.42;;;15.20;99.90;;;;;;2087728;28;20029;-73
2022/06/08 03:41:16;;;;;;;19.77;17.77;;;15.20;99.90;;;;;;2079355;28;20026;-72
2022/06/08 03:42:18;;;;;;;20.05;17.65;;;15.20;99.90;;;;;;2079661;28;20021;-72
2022/06/08 03:43:18;;;;;;;20.00;18.00;;;15.20;99.90;;;;;;2096491;28;20023;-72
2022/06/08 03:44:19;;;;;;;19.52;17.50;;;15.20;99.90;;;;;;2090084;28;20079;-72
2022/06/08 03:45:21;;;;;;;20.02;17.92;;;15.20;99.90;;;;;;2090054;28;20027;-72
2022/06/08 03:46:21;;;;;;;19.85;17.85;;;15.20;99.90;;;;;;2089665;28;20029;-72
2022/06/08 03:47:35;;;;;;;18.98;16.98;;;15.20;99.90;;;;;;2080480;28;20079;-72
2022/06/08 03:48:36;;;;;;;19.83;17.73;;;15.20;99.90;;;;;;2082381;28;20698;-72
2022/06/08 03:49:38;;;;;;;18.73;16.73;;;15.30;99.90;;;;;;2089460;28;20021;-72
2022/06/08 03:50:43;;;;;;;19.35;17.40;;;15.20;99.90;;;;;;2080172;28;20022;-72
2022/06/08 03:51:45;;;;;;;19.00;17.00;;;15.30;99.90;;;;;;2089346;28;20075;-72
2022/06/08 03:52:51;;;;;;;19.55;17.45;;;15.30;99.90;;;;;;2097107;28;20028;-72
2022/06/08 03:54:01;;;;;;;20.50;17.83;;;15.30;99.90;;;;;;2080560;28;20025;-72
2022/06/08 03:55:06;;;;;;;21.38;18.10;;;15.30;99.90;;;;;;2082607;28;20025;-72
2022/06/08 03:56:07;;;;;;;20.45;18.17;;;15.40;99.90;;;;;;2080965;28;20021;-72
2022/06/08 03:57:11;;;;;;;20.55;17.73;;;15.40;99.90;;;;;;2072943;28;20497;-73
2022/06/08 03:58:11;;;;;;;21.58;19.27;;;15.40;99.90;;;;;;2089785;28;20017;-73
2022/06/08 03:59:15;;;;;;;27.83;18.45;;;15.50;99.90;;;;;;2089107;28;20079;-72
2022/06/08 04:00:17;;;;;;;32.30;19.23;;;15.50;99.90;;;;;;2081123;28;20025;-72
2022/06/08 04:01:33;;;;;;;24.13;18.13;;;15.60;99.90;;;;;;2080781;28;20025;-73
2022/06/08 04:02:36;;;;;;;20.50;17.02;;;15.60;99.90;;;;;;2073079;28;20028;-72
2022/06/08 04:03:38;;;;;;;20.77;17.17;;;15.60;99.90;;;;;;2089252;28;20032;-72
2022/06/08 04:04:40;;;;;;;20.10;17.23;;;15.60;99.90;;;;;;2097547;28;20021;-72
2022/06/08 04:05:42;;;;;;;21.58;17.90;;;15.70;99.90;;;;;;2080973;28;20022;-73
2022/06/08 04:06:49;;;;;;;18.88;16.88;;;15.70;99.90;;;;;;2073567;28;20026;-73
2022/06/08 04:07:51;;;;;;;19.70;17.30;;;15.70;99.90;;;;;;2073140;28;20105;-73
2022/06/08 04:08:53;;;;;;;19.92;17.83;;;15.80;99.90;;;;;;2081083;28;20030;-72
2022/06/08 04:09:54;;;;;;;19.83;17.73;;;15.80;99.90;;;;;;2080951;28;20565;-73
2022/06/08 04:10:55;;;;;;;20.25;18.15;;;15.80;99.90;;;;;;2072836;28;20440;-73
2022/06/08 04:11:57;;;;;;;20.85;18.27;;;15.90;99.90;;;;;;2089213;28;20848;-72
2022/06/08 04:12:58;;;;;;;19.92;17.52;;;16.00;99.90;;;;;;2089174;28;20033;-72
2022/06/08 04:14:02;;;;;;;20.00;17.88;;;16.00;99.90;;;;;;2081440;28;20030;-73
2022/06/08 04:15:04;;;;;;;17.85;15.77;;;16.10;99.90;;;;;;2097267;28;20666;-73
2022/06/08 04:16:05;;;;;;;19.73;17.08;;;16.20;99.90;;;;;;2088860;28;20111;-72
2022/06/08 04:17:13;;;;;;;18.85;16.48;;;16.30;99.90;;;;;;2090113;28;20673;-72
2022/06/08 04:18:17;;;;;;;20.17;16.42;;;16.40;99.90;;;;;;2088753;28;20033;-73
2022/06/08 04:19:20;;;;;;;20.50;17.88;;;16.60;99.90;;;;;;2080950;28;20030;-73
2022/06/08 04:20:20;;;;;;;18.13;16.20;;;16.80;99.90;;;;;;2079730;28;20029;-73
2022/06/08 04:21:21;;;;;;;18.17;15.77;;;16.90;99.90;;;;;;2080226;28;20582;-73
2022/06/08 04:22:36;;;;;;;18.30;15.77;;;17.10;99.90;;;;;;2096851;28;20050;-73
2022/06/08 04:23:38;;;;;;;17.73;15.05;;;17.30;99.90;;;;;;2086761;28;20036;-73
2022/06/08 04:24:39;;;;;;;17.25;15.05;;;17.50;99.90;;;;;;2080254;28;20547;-73
2022/06/08 04:25:41;;;;;;;18.05;14.63;;;17.60;99.90;;;;;;2089151;28;20104;-74
2022/06/08 04:26:43;;;;;;;18.23;14.77;;;17.80;99.90;;;;;;2080271;28;20088;-73
2022/06/08 04:27:53;;;;;;;17.27;14.80;;;17.90;99.90;;;;;;2073485;28;20736;-73
2022/06/08 04:28:54;;;;;;;16.83;14.55;;;18.00;99.90;;;;;;2088721;28;20396;-73
2022/06/08 04:29:55;;;;;;;16.08;14.40;;;18.10;99.90;;;;;;2096772;28;20067;-73
2022/06/08 04:30:56;;;;;;;18.05;14.48;;;18.20;99.90;;;;;;2080285;28;20627;-73
2022/06/08 04:31:58;;;;;;;16.05;14.38;;;18.30;99.90;;;;;;2072484;28;20026;-73
2022/06/08 04:33:02;;;;;;;16.27;13.88;;;18.50;99.90;;;;;;2088673;28;20511;-73
2022/06/08 04:34:06;;;;;;;15.68;13.85;;;18.70;99.90;;;;;;2088377;28;20033;-73
2022/06/08 04:35:09;;;;;;;14.60;13.10;;;19.00;99.90;;;;;;2080298;28;20029;-73
2022/06/08 04:36:10;;;;;;;13.50;12.10;;;19.30;99.90;;;;;;2088568;28;20033;-73
2022/06/08 04:37:12;;;;;;;14.75;13.00;;;19.60;99.90;;;;;;2088173;28;20033;-73
2022/06/08 04:38:19;;;;;;;14.23;12.75;;;19.80;99.90;;;;;;2080189;28;20504;-74
2022/06/08 04:39:21;;;;;;;14.32;12.10;;;20.10;99.90;;;;;;2080077;28;20030;-73
2022/06/08 04:40:30;;;;;;;14.18;12.77;;;20.30;99.90;;;;;;2080960;28;20146;-73
2022/06/08 04:41:32;;;;;;;13.68;12.27;;;20.50;99.90;;;;;;2096798;28;20094;-73
2022/06/08 04:42:34;;;;;;;15.18;13.30;;;20.60;99.90;;;;;;2088217;28;20025;-73
2022/06/08 04:43:35;;;;;;;14.23;12.50;;;20.80;99.90;;;;;;2080311;28;20456;-74
2022/06/08 04:44:36;;;;;;;15.90;12.45;;;21.00;99.90;;;;;;2080072;28;20026;-73
2022/06/08 04:45:42;;;;;;;13.95;12.55;;;21.20;99.90;;;;;;2080573;28;20036;-73
2022/06/08 04:46:44;;;;;;;13.38;12.07;;;21.30;99.90;;;;;;2080157;28;20029;-73
2022/06/08 04:47:51;;;;;;;14.50;13.00;;;21.40;99.90;;;;;;2072744;28;20504;-73
2022/06/08 04:48:52;;;;;;;13.68;12.27;;;21.50;99.90;;;;;;2088265;28;20487;-73
2022/06/08 04:49:57;;;;;;;12.48;11.18;;;21.50;99.90;;;;;;2087621;28;20029;-73
2022/06/08 04:51:01;;;;;;;12.45;11.25;;;21.70;99.90;;;;;;2072010;28;20427;-73
2022/06/08 04:52:05;;;;;;;12.57;11.38;;;21.80;99.90;;;;;;2072167;28;20029;-73
2022/06/08 04:53:06;;;;;;;14.10;12.52;;;21.90;99.90;;;;;;2071664;28;20030;-73
2022/06/08 04:54:11;;;;;;;14.35;12.85;;;22.00;99.90;;;;;;2071358;28;20041;-74
2022/06/08 04:55:16;;;;;;;16.92;13.55;;;21.90;99.90;;;;;;2065088;28;20053;-73
2022/06/08 04:56:19;;;;;;;14.23;12.60;;;21.90;99.90;;;;;;2080505;28;20113;-74
2022/06/08 04:57:24;;;;;;;14.25;11.45;;;21.80;99.90;;;;;;2079541;28;20029;-74
2022/06/08 04:58:28;;;;;;;12.55;11.25;;;21.90;99.90;;;;;;2072128;28;20042;-74
2022/06/08 04:59:30;;;;;;;12.85;11.55;;;22.20;99.90;;;;;;2079973;28;20029;-74
2022/06/08 05:00:40;;;;;;;11.75;10.50;;;22.30;99.90;;;;;;2089128;28;20032;-74
2022/06/08 05:01:43;;;;;;;11.98;10.50;;;22.50;99.90;;;;;;2079615;28;20045;-74
2022/06/08 05:02:50;;;;;;;12.63;11.32;;;22.60;99.90;;;;;;2072708;28;20816;-74
2022/06/08 05:03:59;;;;;;;12.20;10.75;;;22.70;99.90;;;;;;2079501;28;20492;-74
2022/06/08 05:05:00;;;;;;;11.65;10.40;;;22.50;99.90;;;;;;2079982;28;20149;-74
2022/06/08 05:06:01;;;;;;;11.77;10.57;;;22.50;99.90;;;;;;2088275;28;20059;-73
2022/06/08 05:07:07;;;;;;;11.75;10.57;;;22.40;99.90;;;;;;2079942;28;20057;-74
2022/06/08 05:08:09;;;;;;;11.98;10.40;;;22.30;99.90;;;;;;2088339;28;20033;-75
2022/06/08 05:09:12;;;;;;;14.70;10.60;;;22.30;99.90;;;;;;2087780;28;20033;-73
2022/06/08 05:10:18;;;;;;;11.55;10.35;;;22.40;99.90;;;;;;2088180;28;20025;-74
2022/06/08 05:11:19;;;;;;;12.90;10.50;;;22.50;99.90;;;;;;2096037;28;20025;-73
2022/06/08 05:12:20;;;;;;;11.02;9.93;;;22.50;99.90;;;;;;2079652;28;20056;-74
2022/06/08 05:13:23;;;;;;;10.05;9.15;;;22.70;99.90;;;;;;2079735;28;20029;-74
2022/06/08 05:14:30;;;;;;;10.40;9.40;;;22.80;99.90;;;;;;2079781;28;20025;-74
2022/06/08 05:15:34;;;;;;;11.38;9.27;;;23.00;99.90;;;;;;2088030;28;20063;-75
2022/06/08 05:16:36;;;;;;;11.02;9.40;;;23.10;99.90;;;;;;2087297;28;20025;-75
2022/06/08 05:17:38;;;;;;;11.98;10.63;;;23.30;99.00;;;;;;2071449;28;20034;-76
2022/06/08 05:18:40;;;;;;;11.95;10.10;;;23.20;98.60;;;;;;2088251;28;20431;-75
2022/06/08 05:19:47;;;;;;;10.40;9.13;;;23.20;98.20;;;;;;2095748;28;20056;-73
2022/06/08 05:20:49;;;;;;;9.27;8.38;;;23.20;98.10;;;;;;2079387;28;20025;-74
2022/06/08 05:21:53;;;;;;;9.50;8.52;;;23.30;98.00;;;;;;2079622;28;20029;-73
2022/06/08 05:22:58;;;;;;;9.88;8.88;;;23.40;97.60;;;;;;2079980;28;20091;-75
2022/06/08 05:24:01;;;;;;;10.02;9.00;;;23.60;97.30;;;;;;2079446;28;20777;-73
2022/06/08 05:25:13;;;;;;;8.95;8.15;;;23.70;96.50;;;;;;2072575;28;20029;-72
2022/06/08 05:26:14;;;;;;;8.55;7.25;;;23.90;95.60;;;;;;2072158;28;20325;-74
2022/06/08 05:27:17;;;;;;;9.15;8.23;;;24.10;94.70;;;;;;2080398;28;20088;-73
2022/06/08 05:28:19;;;;;;;9.10;8.25;;;24.30;93.90;;;;;;2081305;28;20018;-73
2022/06/08 05:29:27;;;;;;;8.23;7.40;;;24.40;92.70;;;;;;2073034;28;20029;-72
2022/06/08 05:30:32;;;;;;;7.93;6.80;;;24.50;92.00;;;;;;2071211;28;20025;-75
2022/06/08 05:31:33;;;;;;;9.25;8.30;;;24.60;91.70;;;;;;2071194;28;20133;-74
2022/06/08 05:32:34;;;;;;;10.45;9.27;;;24.70;91.40;;;;;;2079358;28;20064;-73
2022/06/08 05:33:37;;;;;;;9.13;8.18;;;24.60;91.10;;;;;;2087504;28;20025;-73
2022/06/08 05:34:46;;;;;;;9.18;7.38;;;24.60;91.30;;;;;;2089039;28;20029;-74
2022/06/08 05:35:48;;;;;;;8.68;7.28;;;24.90;90.60;;;;;;2087586;28;20075;-74
2022/06/08 05:36:54;;;;;;;7.03;6.32;;;25.00;89.40;;;;;;2090731;28;20032;-73
2022/06/08 05:38:00;;;;;;;7.10;6.40;;;25.20;87.10;;;;;;2086708;28;20090;-74
2022/06/08 05:39:01;;;;;;;8.45;7.00;;;25.40;85.60;;;;;;2076392;28;20022;-75
2022/06/08 05:40:08;;;;;;;8.70;7.90;;;25.40;84.80;;;;;;2075053;28;20029;-74
2022/06/08 05:41:09;;;;;;;10.38;7.43;;;25.20;82.00;;;;;;2083443;28;20029;-75
2022/06/08 05:42:11;;;;;;;7.32;6.55;;;24.90;83.20;;;;;;2075582;28;20017;-73
2022/06/08 05:43:17;;;;;;;9.88;6.90;;;25.00;83.60;;;;;;2074874;28;20060;-74